Tallinn, Estonia
Current Conditions -  °F | °C
As of 5:50 AM on Sunday 23 Nov 2014 (Local Time) from EETN Reporting Station
Overcast Overcast  
Wind Chill:   Ceiling: 2400
Heat Index:   Visibility: 4mi
Dew Point:   Wind: 2mph
Humidity: 100%   Direction: NA
Pressure: 30.42"   Gusts: NA
Location:  59.44°N, 24.74°E
Report Text: EETN 230350Z VRB02KT 6000 FEW016 OVC024 00/00 Q1030 R08/290195 NOSIG
Loading
Personal Weather Stations






























Interactive Weather Map New forecast layout! Learn more

10-Day Weather Forecast

Advertisements
Track Severe Weather on mobile